Tuskahoma, OK (74574)

1:21 AM CST on February 01, 2015 (GMT -0600)
McAlester Regional | Change Station
CLOSE
Current Station
Airport
Location: McAlester,
Elevation: 768 ft
Nearby Weather Stations

Elev 768 ft 34.88 °N, 95.78 °W | Updated 14 minutes ago

Rain
Rain
45 °F
Feels Like 42 °F
N
6
Wind Variable Wind from South

Today
High -- | Low -- °F
--% Chance of Precip.
Yesterday
High -- | Low -- °F
Precip. -- in
7:19 AM 5:50 PM
Waxing Gibbous, 93% visible
Pressure 29.86 in
Visibility 3.0 miles
Clouds Mostly Cloudy 600 ft
Overcast 1200 ft
Windchill 42 °F
Dew Point 44 °F
Humidity 97%
Rainfall 0.21 in
Snow Depth Not available.
UV 0 out of 12
Pollen 3.60 out of 12
Air Quality Not available.
Flu Activity Not available.
SPECI KMLC 010707Z AUTO 19005KT 3SM RA BR BKN006 OVC012 07/07 A2986 RMK AO2 CIG 005V009 P0002 T00720067

More Conditions Fewer Conditions

Pressure 29.86 in
Visibility 3.0 miles
Clouds Mostly Cloudy 600 ft
Overcast 1200 ft
Windchill 42 °F
Dew Point 44 °F
Humidity 97%
Rainfall 0.21 in
Snow Depth Not available.
UV 0 out of 12
Pollen 3.60 out of 12
Air Quality Not available.
Flu Activity Not available.
SPECI KMLC 010707Z AUTO 19005KT 3SM RA BR BKN006 OVC012 07/07 A2986 RMK AO2 CIG 005V009 P0002 T00720067

More Conditions Fewer Conditions

Nowcast | as of 12:57 am CST on February 1, 2015

At 1 am...National Weather Service radars continued to detect a large area of rainfall affecting all of eastern Oklahoma and northwest Arkansas. Precipitation amounts remain light. Through 3 am...rain or drizzle will persist across much of eastern Oklahoma and northwest Arkansas. Precipitation amounts are expected to remain rather light. Precipitation will start coming to an end from the west.

×

10-Day Weather Forecast

Almanac

Astronomy

Feb. 01, 2015 Rise Set
Actual Time
Civil Twilight
Nautical Twilight
Astronomical Twilight
Moon
Length of Visible Light
Length of Day
Tomorrow will be .
, % of the Moon is Illuminated

Today's Extremes

State Highs State Lows

Community

WunderPhotos

Upload Photos

1,792,325 photos uploaded!

WunderBlogs® & News

Nearby

Air Quality

  Air Quality AQ Index Pollutant
Not available.

Snow Depth

Station Depth Elevation

Earthquake Activity

City Distance Mag. Time & Date
Minimum magnitude displayed is 2.5.

Coastal Water Temperatures

Place Temperature

Nearby Weather Stations